Terminal Aerodrome Forecast
Issued by NWS

Home | Current Version | Previous Version | Text Only | Print | Product List | Glossary On
Versions: 1 2 3 4 5 6 7 8 9 10 11 12 13 14 15 16 17 18 19 20 21 22 23 24 25
000
FTUS42 KRAH 221736
TAFRWI
TAF
KRWI 221736Z 2218/2318 01005KT P6SM OVC004
     FM230000 16012KT P6SM SHRA OVC012
      TEMPO 2301/2305 19022G35KT 1SM +TSRA OVC009CB
     FM230900 22012G22KT P6SM BKN015
     FM231200 19008KT P6SM OVC025 PROB30 2315/2318 5SM -SHRA OVC025=

USA.gov is the U.S. government's official web portal to all federal, state and local government web resources and services.